sensor_id;sensor_type;location;lat;lon;timestamp;P1;durP1;ratioP1;P2;durP2;ratioP2
22861;SDS011;11598;50.652;6.172;2023-05-14T00:02:54;14.30;;;4.35;;
22861;SDS011;11598;50.652;6.172;2023-05-14T00:12:54;5.80;;;3.97;;
22861;SDS011;11598;50.652;6.172;2023-05-14T00:22:55;7.15;;;3.63;;
22861;SDS011;11598;50.652;6.172;2023-05-14T00:32:55;6.78;;;4.57;;
22861;SDS011;11598;50.652;6.172;2023-05-14T00:42:56;9.90;;;4.70;;
22861;SDS011;11598;50.652;6.172;2023-05-14T00:52:56;9.30;;;5.03;;
22861;SDS011;11598;50.652;6.172;2023-05-14T01:02:56;10.98;;;5.00;;
22861;SDS011;11598;50.652;6.172;2023-05-14T01:13:22;7.15;;;4.93;;
22861;SDS011;11598;50.652;6.172;2023-05-14T01:23:27;6.35;;;4.07;;
22861;SDS011;11598;50.652;6.172;2023-05-14T01:33:27;13.13;;;5.45;;
22861;SDS011;11598;50.652;6.172;2023-05-14T01:43:28;10.65;;;5.45;;
22861;SDS011;11598;50.652;6.172;2023-05-14T01:53:29;11.90;;;6.25;;
22861;SDS011;11598;50.652;6.172;2023-05-14T02:03:29;11.52;;;5.53;;
22861;SDS011;11598;50.652;6.172;2023-05-14T02:13:30;8.80;;;6.20;;
22861;SDS011;11598;50.652;6.172;2023-05-14T02:23:30;11.38;;;6.72;;
22861;SDS011;11598;50.652;6.172;2023-05-14T02:33:30;13.45;;;7.43;;
22861;SDS011;11598;50.652;6.172;2023-05-14T02:43:31;12.13;;;7.77;;
22861;SDS011;11598;50.652;6.172;2023-05-14T02:53:31;11.65;;;8.57;;
22861;SDS011;11598;50.652;6.172;2023-05-14T03:03:32;11.80;;;8.07;;
22861;SDS011;11598;50.652;6.172;2023-05-14T03:13:33;15.50;;;8.77;;
22861;SDS011;11598;50.652;6.172;2023-05-14T03:23:33;20.20;;;10.95;;
22861;SDS011;11598;50.652;6.172;2023-05-14T03:33:34;18.60;;;10.63;;
22861;SDS011;11598;50.652;6.172;2023-05-14T03:43:34;19.13;;;12.45;;
22861;SDS011;11598;50.652;6.172;2023-05-14T03:53:35;15.10;;;10.93;;
22861;SDS011;11598;50.652;6.172;2023-05-14T04:03:35;15.43;;;8.50;;
22861;SDS011;11598;50.652;6.172;2023-05-14T04:13:36;10.93;;;6.93;;
22861;SDS011;11598;50.652;6.172;2023-05-14T04:23:36;10.82;;;7.35;;
22861;SDS011;11598;50.652;6.172;2023-05-14T04:33:36;12.25;;;7.15;;
22861;SDS011;11598;50.652;6.172;2023-05-14T04:43:38;12.80;;;8.35;;
22861;SDS011;11598;50.652;6.172;2023-05-14T04:53:38;12.50;;;7.40;;
22861;SDS011;11598;50.652;6.172;2023-05-14T05:03:39;10.93;;;6.53;;
22861;SDS011;11598;50.652;6.172;2023-05-14T05:13:39;9.88;;;7.55;;
22861;SDS011;11598;50.652;6.172;2023-05-14T05:23:40;13.15;;;7.43;;
22861;SDS011;11598;50.652;6.172;2023-05-14T05:33:40;11.10;;;7.30;;
22861;SDS011;11598;50.652;6.172;2023-05-14T05:43:40;11.35;;;8.20;;
22861;SDS011;11598;50.652;6.172;2023-05-14T05:53:41;14.27;;;9.20;;
22861;SDS011;11598;50.652;6.172;2023-05-14T06:03:41;13.57;;;8.93;;
22861;SDS011;11598;50.652;6.172;2023-05-14T06:13:41;11.50;;;8.35;;
22861;SDS011;11598;50.652;6.172;2023-05-14T06:23:42;15.07;;;11.23;;
22861;SDS011;11598;50.652;6.172;2023-05-14T06:33:42;11.93;;;10.02;;
22861;SDS011;11598;50.652;6.172;2023-05-14T06:43:42;12.52;;;9.68;;
22861;SDS011;11598;50.652;6.172;2023-05-14T06:53:43;13.45;;;9.80;;
22861;SDS011;11598;50.652;6.172;2023-05-14T07:03:43;12.70;;;9.55;;
22861;SDS011;11598;50.652;6.172;2023-05-14T07:13:43;14.00;;;10.07;;
22861;SDS011;11598;50.652;6.172;2023-05-14T07:23:44;14.82;;;11.75;;
22861;SDS011;11598;50.652;6.172;2023-05-14T07:33:44;16.23;;;12.65;;
22861;SDS011;11598;50.652;6.172;2023-05-14T07:43:45;19.33;;;14.40;;
22861;SDS011;11598;50.652;6.172;2023-05-14T07:53:45;22.30;;;15.98;;
22861;SDS011;11598;50.652;6.172;2023-05-14T08:03:45;18.02;;;15.30;;
22861;SDS011;11598;50.652;6.172;2023-05-14T08:13:46;24.70;;;18.13;;
22861;SDS011;11598;50.652;6.172;2023-05-14T08:23:47;21.83;;;18.83;;
22861;SDS011;11598;50.652;6.172;2023-05-14T08:33:47;25.88;;;19.95;;
22861;SDS011;11598;50.652;6.172;2023-05-14T08:44:07;24.02;;;20.90;;
22861;SDS011;11598;50.652;6.172;2023-05-14T08:54:14;30.60;;;23.48;;
22861;SDS011;11598;50.652;6.172;2023-05-14T09:04:20;36.55;;;28.00;;
22861;SDS011;11598;50.652;6.172;2023-05-14T09:14:24;47.65;;;32.20;;
22861;SDS011;11598;50.652;6.172;2023-05-14T09:24:25;49.53;;;36.88;;
22861;SDS011;11598;50.652;6.172;2023-05-14T09:34:30;43.38;;;33.33;;
22861;SDS011;11598;50.652;6.172;2023-05-14T09:44:32;48.10;;;38.53;;
22861;SDS011;11598;50.652;6.172;2023-05-14T09:54:32;51.83;;;39.97;;
22861;SDS011;11598;50.652;6.172;2023-05-14T10:04:34;54.20;;;40.97;;
22861;SDS011;11598;50.652;6.172;2023-05-14T10:14:37;52.53;;;40.47;;
22861;SDS011;11598;50.652;6.172;2023-05-14T10:24:41;56.22;;;42.40;;
22861;SDS011;11598;50.652;6.172;2023-05-14T10:34:42;44.17;;;35.50;;
22861;SDS011;11598;50.652;6.172;2023-05-14T10:44:47;53.85;;;43.38;;
22861;SDS011;11598;50.652;6.172;2023-05-14T10:54:58;51.00;;;39.88;;
22861;SDS011;11598;50.652;6.172;2023-05-14T11:05:00;44.72;;;37.33;;
22861;SDS011;11598;50.652;6.172;2023-05-14T11:15:06;49.80;;;38.50;;
22861;SDS011;11598;50.652;6.172;2023-05-14T11:25:11;46.70;;;37.70;;
22861;SDS011;11598;50.652;6.172;2023-05-14T11:35:16;41.65;;;30.50;;
22861;SDS011;11598;50.652;6.172;2023-05-14T11:45:26;36.70;;;27.85;;
22861;SDS011;11598;50.652;6.172;2023-05-14T11:55:28;40.10;;;30.90;;
22861;SDS011;11598;50.652;6.172;2023-05-14T12:05:29;39.67;;;29.57;;
22861;SDS011;11598;50.652;6.172;2023-05-14T12:15:29;35.45;;;26.45;;
22861;SDS011;11598;50.652;6.172;2023-05-14T12:25:30;34.42;;;26.92;;
22861;SDS011;11598;50.652;6.172;2023-05-14T12:35:30;37.22;;;25.17;;
22861;SDS011;11598;50.652;6.172;2023-05-14T12:45:31;18.83;;;12.32;;
22861;SDS011;11598;50.652;6.172;2023-05-14T12:55:32;15.90;;;10.05;;
22861;SDS011;11598;50.652;6.172;2023-05-14T13:05:33;12.48;;;8.18;;
22861;SDS011;11598;50.652;6.172;2023-05-14T13:15:34;11.23;;;7.22;;
22861;SDS011;11598;50.652;6.172;2023-05-14T13:25:35;12.48;;;8.57;;
22861;SDS011;11598;50.652;6.172;2023-05-14T13:35:35;16.08;;;8.68;;
22861;SDS011;11598;50.652;6.172;2023-05-14T13:45:35;15.70;;;8.07;;
22861;SDS011;11598;50.652;6.172;2023-05-14T13:55:36;16.25;;;9.70;;
22861;SDS011;11598;50.652;6.172;2023-05-14T14:05:36;11.60;;;7.70;;
22861;SDS011;11598;50.652;6.172;2023-05-14T14:15:37;13.10;;;8.88;;
22861;SDS011;11598;50.652;6.172;2023-05-14T14:25:37;14.48;;;11.68;;
22861;SDS011;11598;50.652;6.172;2023-05-14T14:35:37;14.55;;;11.45;;
22861;SDS011;11598;50.652;6.172;2023-05-14T14:45:38;14.48;;;9.52;;
22861;SDS011;11598;50.652;6.172;2023-05-14T14:55:38;12.65;;;8.40;;
22861;SDS011;11598;50.652;6.172;2023-05-14T15:05:39;11.38;;;7.47;;
22861;SDS011;11598;50.652;6.172;2023-05-14T15:15:39;7.97;;;6.13;;
22861;SDS011;11598;50.652;6.172;2023-05-14T15:25:39;8.18;;;5.55;;
22861;SDS011;11598;50.652;6.172;2023-05-14T15:35:40;9.38;;;5.20;;
22861;SDS011;11598;50.652;6.172;2023-05-14T15:45:42;7.65;;;5.45;;
22861;SDS011;11598;50.652;6.172;2023-05-14T15:55:46;11.02;;;6.18;;
22861;SDS011;11598;50.652;6.172;2023-05-14T16:05:47;10.15;;;6.00;;
22861;SDS011;11598;50.652;6.172;2023-05-14T16:15:47;9.10;;;6.00;;
22861;SDS011;11598;50.652;6.172;2023-05-14T16:25:48;12.37;;;7.67;;
22861;SDS011;11598;50.652;6.172;2023-05-14T16:35:49;10.43;;;6.37;;
22861;SDS011;11598;50.652;6.172;2023-05-14T16:45:50;9.15;;;6.45;;
22861;SDS011;11598;50.652;6.172;2023-05-14T16:55:50;11.75;;;6.72;;
22861;SDS011;11598;50.652;6.172;2023-05-14T17:05:50;8.38;;;6.18;;
22861;SDS011;11598;50.652;6.172;2023-05-14T17:15:51;10.93;;;7.45;;
22861;SDS011;11598;50.652;6.172;2023-05-14T17:25:51;10.27;;;8.23;;
22861;SDS011;11598;50.652;6.172;2023-05-14T17:35:52;15.02;;;11.30;;
22861;SDS011;11598;50.652;6.172;2023-05-14T17:45:52;14.32;;;10.88;;
22861;SDS011;11598;50.652;6.172;2023-05-14T17:55:52;19.63;;;13.70;;
22861;SDS011;11598;50.652;6.172;2023-05-14T18:05:53;18.15;;;12.70;;
22861;SDS011;11598;50.652;6.172;2023-05-14T18:15:53;16.10;;;11.48;;
22861;SDS011;11598;50.652;6.172;2023-05-14T18:25:55;19.50;;;12.88;;
22861;SDS011;11598;50.652;6.172;2023-05-14T18:35:56;18.30;;;12.55;;
22861;SDS011;11598;50.652;6.172;2023-05-14T18:45:56;12.85;;;9.75;;
22861;SDS011;11598;50.652;6.172;2023-05-14T18:55:58;16.45;;;12.10;;
22861;SDS011;11598;50.652;6.172;2023-05-14T19:05:59;14.13;;;10.73;;
22861;SDS011;11598;50.652;6.172;2023-05-14T19:15:59;14.88;;;10.45;;
22861;SDS011;11598;50.652;6.172;2023-05-14T19:25:59;15.35;;;10.65;;
22861;SDS011;11598;50.652;6.172;2023-05-14T19:36:00;16.42;;;10.50;;
22861;SDS011;11598;50.652;6.172;2023-05-14T19:46:00;17.67;;;10.95;;
22861;SDS011;11598;50.652;6.172;2023-05-14T19:56:01;13.23;;;10.70;;
22861;SDS011;11598;50.652;6.172;2023-05-14T20:06:01;19.48;;;12.30;;
22861;SDS011;11598;50.652;6.172;2023-05-14T20:16:02;15.93;;;11.70;;
22861;SDS011;11598;50.652;6.172;2023-05-14T20:26:02;18.75;;;14.07;;
22861;SDS011;11598;50.652;6.172;2023-05-14T20:36:03;16.50;;;11.93;;
22861;SDS011;11598;50.652;6.172;2023-05-14T20:46:04;18.20;;;13.15;;
22861;SDS011;11598;50.652;6.172;2023-05-14T20:56:06;18.33;;;14.40;;
22861;SDS011;11598;50.652;6.172;2023-05-14T21:06:06;17.13;;;12.63;;
22861;SDS011;11598;50.652;6.172;2023-05-14T21:16:06;20.15;;;13.80;;
22861;SDS011;11598;50.652;6.172;2023-05-14T21:26:07;20.98;;;16.75;;
22861;SDS011;11598;50.652;6.172;2023-05-14T21:36:07;25.23;;;19.85;;
22861;SDS011;11598;50.652;6.172;2023-05-14T21:46:08;23.52;;;17.85;;
22861;SDS011;11598;50.652;6.172;2023-05-14T21:56:09;21.55;;;16.10;;
22861;SDS011;11598;50.652;6.172;2023-05-14T22:06:09;20.67;;;15.13;;
22861;SDS011;11598;50.652;6.172;2023-05-14T22:16:10;27.85;;;20.25;;
22861;SDS011;11598;50.652;6.172;2023-05-14T22:26:11;27.63;;;20.30;;
22861;SDS011;11598;50.652;6.172;2023-05-14T22:36:11;25.77;;;19.55;;
22861;SDS011;11598;50.652;6.172;2023-05-14T22:46:11;20.35;;;16.83;;
22861;SDS011;11598;50.652;6.172;2023-05-14T22:56:12;34.13;;;23.17;;
22861;SDS011;11598;50.652;6.172;2023-05-14T23:06:12;27.40;;;18.23;;
22861;SDS011;11598;50.652;6.172;2023-05-14T23:16:13;45.40;;;28.50;;
22861;SDS011;11598;50.652;6.172;2023-05-14T23:26:14;64.18;;;37.00;;
22861;SDS011;11598;50.652;6.172;2023-05-14T23:36:14;54.80;;;37.47;;
22861;SDS011;11598;50.652;6.172;2023-05-14T23:46:15;70.55;;;41.85;;
22861;SDS011;11598;50.652;6.172;2023-05-14T23:56:15;75.88;;;44.33;;
